CPA663 VHHH-VABB
Flight info
| Callsign | CPA663 |
|---|---|
| Flight time | 5h 36m |
| Altitude | 36000 |
| Route | PECAN V10 SIKOU/K0930S1040 A202 ASSAD/K0919F360 A206 NALAO/N0496F360 A206 LPB B465 CEA Q20 ENTAP/N0493F380 Q20 OPAKA EMRAK2A |
| Aircraft | B77W/H-SDE1E2E3FGHIJ2J3J4J5M1RWXY/LB1D1 |
Departure
| Time | 2026-05-04 10:59 |
|---|---|
| Airport | Hong Kong International Airport (VHHH) |
Arrival
| Time | 2026-05-04 16:35 |
|---|---|
| Airport | Chhatrapati Shivaji Maharaj International Airport (VABB) |
| Time | Latitude | Longitude | Altitude | Speed | Heading |
|---|---|---|---|---|---|
| 2026-05-04 10:19 | 22.31443 | 113.92632 | 42 ft | 0 kts | 206° |
| 2026-05-04 10:42 | 22.31466 | 113.92644 | 41 ft | 4 kts | 206° |
| 2026-05-04 10:42 | 22.31490 | 113.92657 | 38 ft | 4 kts | 206° |
| 2026-05-04 10:42 | 22.31510 | 113.92668 | 39 ft | 4 kts | 221° |
| 2026-05-04 10:42 | 22.31522 | 113.92684 | 38 ft | 4 kts | 259° |
| 2026-05-04 10:43 | 22.31521 | 113.92704 | 36 ft | 4 kts | 297° |
| 2026-05-04 10:44 | 22.31506 | 113.92733 | 39 ft | 0 kts | 296° |
| 2026-05-04 10:49 | 22.31554 | 113.92080 | 41 ft | 21 kts | 250° |
| 2026-05-04 10:49 | 22.31506 | 113.91934 | 42 ft | 17 kts | 248° |
| 2026-05-04 10:50 | 22.31403 | 113.91904 | 42 ft | 17 kts | 162° |
| 2026-05-04 10:51 | 22.30658 | 113.92138 | 42 ft | 10 kts | 237° |
| 2026-05-04 10:52 | 22.30632 | 113.92064 | 42 ft | 13 kts | 249° |
| 2026-05-04 10:52 | 22.30591 | 113.91936 | 42 ft | 23 kts | 251° |
| 2026-05-04 10:52 | 22.30528 | 113.91743 | 42 ft | 19 kts | 250° |
| 2026-05-04 10:54 | 22.30177 | 113.90656 | 42 ft | 25 kts | 251° |
| 2026-05-04 10:54 | 22.30120 | 113.90479 | 41 ft | 25 kts | 251° |
| 2026-05-04 10:56 | 22.29748 | 113.89765 | 42 ft | 0 kts | 161° |
| 2026-05-04 10:57 | 22.29747 | 113.89766 | 40 ft | 1 kts | 161° |
| 2026-05-04 10:57 | 22.29690 | 113.89789 | 42 ft | 12 kts | 155° |
| 2026-05-04 10:57 | 22.29646 | 113.89859 | 42 ft | 12 kts | 89° |
| 2026-05-04 10:57 | 22.29656 | 113.89906 | 42 ft | 0 kts | 70° |
| 2026-05-04 10:58 | 22.29688 | 113.90002 | 41 ft | 43 kts | 71° |
| 2026-05-04 10:58 | 22.29873 | 113.90575 | 40 ft | 117 kts | 71° |
| 2026-05-04 10:58 | 22.30211 | 113.91619 | 42 ft | 175 kts | 70° |
| 2026-05-04 10:58 | 22.30643 | 113.92984 | 286 ft | 199 kts | 70° |
| 2026-05-04 10:59 | 22.31056 | 113.94377 | 1084 ft | 195 kts | 71° |
| 2026-05-04 10:59 | 22.31444 | 113.95800 | 1744 ft | 200 kts | 71° |
| 2026-05-04 10:59 | 22.31902 | 113.97255 | 2218 ft | 208 kts | 67° |
| 2026-05-04 10:59 | 22.32417 | 113.98741 | 2768 ft | 214 kts | 67° |
| 2026-05-04 11:00 | 22.32943 | 114.00271 | 3321 ft | 219 kts | 68° |
| 2026-05-04 11:01 | 22.27855 | 114.08523 | 6596 ft | 278 kts | 184° |
| 2026-05-04 11:02 | 22.25904 | 114.08495 | 7267 ft | 281 kts | 182° |
| 2026-05-04 11:02 | 22.23972 | 114.08509 | 8026 ft | 281 kts | 182° |
| 2026-05-04 11:05 | 21.96434 | 113.96066 | 15909 ft | 400 kts | 177° |
| 2026-05-04 11:06 | 21.93655 | 113.96412 | 16617 ft | 404 kts | 177° |
| 2026-05-04 11:06 | 21.90847 | 113.96769 | 17292 ft | 408 kts | 177° |
| 2026-05-04 11:06 | 21.88016 | 113.97135 | 17955 ft | 413 kts | 177° |
| 2026-05-04 11:06 | 21.85143 | 113.97512 | 18568 ft | 418 kts | 177° |
| 2026-05-04 11:08 | 21.64364 | 114.00343 | 22437 ft | 444 kts | 177° |
| 2026-05-04 11:10 | 21.42365 | 114.02915 | 25378 ft | 455 kts | 197° |
| 2026-05-04 11:12 | 21.25183 | 113.88706 | 27852 ft | 454 kts | 235° |
| 2026-05-04 11:12 | 21.23494 | 113.85841 | 28212 ft | 455 kts | 242° |
| 2026-05-04 11:12 | 21.22038 | 113.82826 | 28570 ft | 457 kts | 244° |
| 2026-05-04 11:12 | 21.20658 | 113.79741 | 28906 ft | 460 kts | 245° |
| 2026-05-04 11:13 | 21.19305 | 113.76631 | 29184 ft | 462 kts | 245° |
| 2026-05-04 11:13 | 21.17953 | 113.73498 | 29483 ft | 464 kts | 246° |
| 2026-05-04 11:13 | 21.16601 | 113.70352 | 29778 ft | 466 kts | 246° |
| 2026-05-04 11:13 | 21.15245 | 113.67186 | 30062 ft | 468 kts | 246° |
| 2026-05-04 11:14 | 21.14787 | 113.66117 | 30159 ft | 468 kts | 246° |
| 2026-05-04 11:14 | 21.12078 | 113.59784 | 30824 ft | 466 kts | 246° |
| 2026-05-04 11:16 | 21.03009 | 113.35351 | 33374 ft | 458 kts | 262° |
| 2026-05-04 11:16 | 21.02658 | 113.32009 | 33725 ft | 456 kts | 264° |
| 2026-05-04 11:16 | 21.02350 | 113.28627 | 34060 ft | 455 kts | 264° |
| 2026-05-04 11:17 | 21.02043 | 113.25262 | 34332 ft | 455 kts | 264° |
| 2026-05-04 11:17 | 21.01732 | 113.21896 | 34616 ft | 453 kts | 264° |
| 2026-05-04 11:19 | 20.99476 | 112.98513 | 36392 ft | 449 kts | 264° |
| 2026-05-04 11:19 | 20.99152 | 112.95201 | 36729 ft | 445 kts | 265° |
| 2026-05-04 11:19 | 20.98830 | 112.91930 | 37251 ft | 438 kts | 265° |
| 2026-05-04 11:19 | 20.98512 | 112.88699 | 37591 ft | 436 kts | 265° |
| 2026-05-04 11:20 | 20.97872 | 112.82191 | 37716 ft | 443 kts | 265° |
| 2026-05-04 11:20 | 20.97548 | 112.78912 | 37827 ft | 444 kts | 265° |
| 2026-05-04 11:20 | 20.97222 | 112.75615 | 37923 ft | 446 kts | 265° |
| 2026-05-04 11:22 | 20.94591 | 112.49291 | 38015 ft | 442 kts | 264° |
| 2026-05-04 11:23 | 20.93932 | 112.42765 | 38102 ft | 441 kts | 264° |
| 2026-05-04 11:25 | 20.91599 | 112.19839 | 38115 ft | 446 kts | 264° |
| 2026-05-04 11:25 | 20.90922 | 112.13239 | 38118 ft | 447 kts | 264° |
| 2026-05-04 11:27 | 20.87829 | 111.83425 | 38115 ft | 448 kts | 264° |
| 2026-05-04 11:28 | 20.87137 | 111.76823 | 38116 ft | 443 kts | 264° |
| 2026-05-04 11:28 | 20.86455 | 111.70344 | 38109 ft | 435 kts | 264° |
| 2026-05-04 11:29 | 20.85783 | 111.63971 | 38117 ft | 435 kts | 264° |
| 2026-05-04 11:29 | 20.85102 | 111.57543 | 38118 ft | 435 kts | 264° |
| 2026-05-04 11:31 | 20.79505 | 111.35641 | 38119 ft | 442 kts | 252° |
| 2026-05-04 11:33 | 20.72205 | 111.13940 | 38118 ft | 445 kts | 252° |
| 2026-05-04 11:33 | 20.70110 | 111.07720 | 38118 ft | 445 kts | 252° |
| 2026-05-04 11:34 | 20.68011 | 111.01494 | 38116 ft | 445 kts | 252° |
| 2026-05-04 11:34 | 20.65913 | 110.95277 | 38114 ft | 445 kts | 252° |
| 2026-05-04 11:35 | 20.63811 | 110.89058 | 38110 ft | 445 kts | 252° |
| 2026-05-04 11:35 | 20.61740 | 110.82888 | 38110 ft | 444 kts | 252° |
| 2026-05-04 11:36 | 20.59659 | 110.76683 | 38109 ft | 444 kts | 252° |
| 2026-05-04 11:36 | 20.57575 | 110.70485 | 38109 ft | 443 kts | 252° |
| 2026-05-04 11:37 | 20.55492 | 110.64295 | 38109 ft | 443 kts | 252° |
| 2026-05-04 11:37 | 20.53406 | 110.58107 | 38114 ft | 443 kts | 252° |
| 2026-05-04 11:38 | 20.51154 | 110.51985 | 38115 ft | 444 kts | 245° |
| 2026-05-04 11:38 | 20.48012 | 110.46286 | 38118 ft | 448 kts | 238° |
| 2026-05-04 11:39 | 20.44147 | 110.41049 | 38118 ft | 450 kts | 234° |
| 2026-05-04 11:41 | 20.30290 | 110.22989 | 38117 ft | 451 kts | 234° |
| 2026-05-04 11:41 | 20.26362 | 110.17779 | 38107 ft | 451 kts | 235° |
| 2026-05-04 11:42 | 20.22454 | 110.12551 | 38113 ft | 451 kts | 235° |
| 2026-05-04 11:42 | 20.18545 | 110.07328 | 38110 ft | 451 kts | 235° |
| 2026-05-04 11:43 | 20.14625 | 110.02102 | 38108 ft | 451 kts | 234° |
| 2026-05-04 11:43 | 20.10705 | 109.96886 | 38124 ft | 451 kts | 234° |
| 2026-05-04 11:44 | 20.06785 | 109.91674 | 38103 ft | 451 kts | 234° |
| 2026-05-04 11:44 | 20.02864 | 109.86465 | 38096 ft | 451 kts | 235° |
| 2026-05-04 11:45 | 19.98944 | 109.81263 | 38098 ft | 451 kts | 235° |
| 2026-05-04 11:45 | 19.95046 | 109.76094 | 38100 ft | 451 kts | 235° |
| 2026-05-04 11:46 | 19.91125 | 109.70899 | 38115 ft | 451 kts | 235° |
| 2026-05-04 11:46 | 19.87201 | 109.65704 | 38109 ft | 450 kts | 235° |
| 2026-05-04 11:47 | 19.83280 | 109.60517 | 38105 ft | 450 kts | 235° |
| 2026-05-04 11:47 | 19.79355 | 109.55331 | 38104 ft | 450 kts | 235° |
| 2026-05-04 11:48 | 19.75465 | 109.50194 | 38098 ft | 451 kts | 235° |
| 2026-05-04 11:48 | 19.72172 | 109.45850 | 38099 ft | 451 kts | 235° |
| 2026-05-04 11:49 | 19.68265 | 109.40700 | 38099 ft | 451 kts | 235° |
| 2026-05-04 11:49 | 19.64332 | 109.35519 | 38098 ft | 451 kts | 235° |
| 2026-05-04 11:50 | 19.60390 | 109.30331 | 38102 ft | 452 kts | 235° |
| 2026-05-04 11:50 | 19.56444 | 109.25142 | 38098 ft | 452 kts | 235° |
| 2026-05-04 11:51 | 19.52497 | 109.19955 | 38100 ft | 452 kts | 235° |
| 2026-05-04 11:51 | 19.48514 | 109.14773 | 38099 ft | 453 kts | 234° |
| 2026-05-04 11:52 | 19.44509 | 109.09611 | 38100 ft | 453 kts | 234° |
| 2026-05-04 11:52 | 19.40504 | 109.04447 | 38097 ft | 454 kts | 234° |
| 2026-05-04 11:53 | 19.36522 | 108.99308 | 38095 ft | 454 kts | 234° |
| 2026-05-04 11:53 | 19.32514 | 108.94138 | 38090 ft | 454 kts | 234° |
| 2026-05-04 11:55 | 19.16482 | 108.73466 | 38089 ft | 454 kts | 234° |
| 2026-05-04 11:56 | 19.12471 | 108.68292 | 38085 ft | 454 kts | 234° |
| 2026-05-04 11:56 | 19.08464 | 108.63129 | 38087 ft | 454 kts | 234° |
| 2026-05-04 11:57 | 19.04481 | 108.58000 | 38081 ft | 454 kts | 233° |
| 2026-05-04 11:57 | 19.00464 | 108.52833 | 38084 ft | 454 kts | 233° |
| 2026-05-04 11:58 | 18.96449 | 108.47673 | 38082 ft | 455 kts | 233° |
| 2026-05-04 11:58 | 18.92432 | 108.42513 | 38074 ft | 455 kts | 233° |
| 2026-05-04 11:59 | 18.88408 | 108.37351 | 38072 ft | 455 kts | 233° |
| 2026-05-04 11:59 | 18.84382 | 108.32189 | 38083 ft | 455 kts | 233° |
| 2026-05-04 12:00 | 18.80354 | 108.27028 | 38082 ft | 456 kts | 233° |
| 2026-05-04 12:00 | 18.76320 | 108.21866 | 38089 ft | 456 kts | 233° |
| 2026-05-04 12:01 | 18.72283 | 108.16703 | 38089 ft | 456 kts | 233° |
| 2026-05-04 12:02 | 18.58145 | 107.98656 | 37616 ft | 454 kts | 233° |
| 2026-05-04 12:03 | 18.56159 | 107.96124 | 37287 ft | 454 kts | 233° |
| 2026-05-04 12:03 | 18.54148 | 107.93562 | 36963 ft | 454 kts | 233° |
| 2026-05-04 12:03 | 18.52128 | 107.90989 | 36450 ft | 458 kts | 233° |
| 2026-05-04 12:03 | 18.50086 | 107.88388 | 36148 ft | 460 kts | 232° |
| 2026-05-04 12:04 | 18.48037 | 107.85781 | 36012 ft | 463 kts | 232° |
| 2026-05-04 12:04 | 18.45980 | 107.83165 | 36010 ft | 465 kts | 232° |
| 2026-05-04 12:04 | 18.41831 | 107.77890 | 35992 ft | 469 kts | 232° |
| 2026-05-04 12:05 | 18.37676 | 107.72594 | 35979 ft | 465 kts | 235° |
| 2026-05-04 12:05 | 18.36092 | 107.69670 | 35987 ft | 459 kts | 251° |
| 2026-05-04 12:05 | 18.35303 | 107.66422 | 36001 ft | 458 kts | 263° |
| 2026-05-04 12:06 | 18.35146 | 107.63083 | 35989 ft | 458 kts | 274° |
| 2026-05-04 12:06 | 18.35702 | 107.59802 | 36015 ft | 456 kts | 282° |
| 2026-05-04 12:06 | 18.37108 | 107.53249 | 36006 ft | 460 kts | 282° |
| 2026-05-04 12:07 | 18.38479 | 107.46632 | 35996 ft | 465 kts | 281° |
| 2026-05-04 12:07 | 18.39811 | 107.39956 | 35999 ft | 467 kts | 281° |
| 2026-05-04 12:08 | 18.41123 | 107.33296 | 35996 ft | 468 kts | 281° |
| 2026-05-04 12:08 | 18.42444 | 107.26586 | 35996 ft | 467 kts | 281° |
| 2026-05-04 12:09 | 18.43759 | 107.19898 | 35994 ft | 465 kts | 281° |
| 2026-05-04 12:09 | 18.45067 | 107.13240 | 35996 ft | 463 kts | 281° |
| 2026-05-04 12:10 | 18.46368 | 107.06603 | 35997 ft | 462 kts | 281° |
| 2026-05-04 12:10 | 18.47660 | 106.99983 | 36000 ft | 461 kts | 281° |
| 2026-05-04 12:11 | 18.48943 | 106.93379 | 36002 ft | 460 kts | 281° |
| 2026-05-04 12:11 | 18.50221 | 106.86786 | 36005 ft | 459 kts | 281° |
| 2026-05-04 12:12 | 18.51490 | 106.80225 | 36004 ft | 460 kts | 281° |
| 2026-05-04 12:12 | 18.52774 | 106.73581 | 36009 ft | 460 kts | 281° |
| 2026-05-04 12:14 | 18.57909 | 106.47137 | 36005 ft | 462 kts | 281° |
| 2026-05-04 12:15 | 18.59214 | 106.40505 | 36002 ft | 462 kts | 281° |
| 2026-05-04 12:15 | 18.60512 | 106.33873 | 36003 ft | 462 kts | 281° |
| 2026-05-04 12:16 | 18.61808 | 106.27236 | 36007 ft | 462 kts | 281° |
| 2026-05-04 12:16 | 18.63100 | 106.20605 | 36005 ft | 462 kts | 281° |
| 2026-05-04 12:17 | 18.64391 | 106.13967 | 36006 ft | 462 kts | 281° |
| 2026-05-04 12:17 | 18.65676 | 106.07342 | 36006 ft | 461 kts | 281° |
| 2026-05-04 12:18 | 18.66947 | 106.00705 | 36006 ft | 461 kts | 280° |
| 2026-05-04 12:18 | 18.68211 | 105.94081 | 36012 ft | 461 kts | 280° |
| 2026-05-04 12:19 | 18.69474 | 105.87459 | 36012 ft | 461 kts | 280° |
| 2026-05-04 12:19 | 18.70737 | 105.80832 | 36014 ft | 460 kts | 280° |
| 2026-05-04 12:20 | 18.71995 | 105.74210 | 36013 ft | 460 kts | 280° |
| 2026-05-04 12:20 | 18.73274 | 105.67637 | 36014 ft | 460 kts | 283° |
| 2026-05-04 12:21 | 18.75252 | 105.61209 | 36025 ft | 461 kts | 289° |
| 2026-05-04 12:21 | 18.77480 | 105.54852 | 36014 ft | 462 kts | 289° |
| 2026-05-04 12:22 | 18.79698 | 105.48482 | 36016 ft | 462 kts | 289° |
| 2026-05-04 12:22 | 18.81892 | 105.42109 | 36018 ft | 462 kts | 288° |
| 2026-05-04 12:23 | 18.84079 | 105.35727 | 36020 ft | 462 kts | 288° |
| 2026-05-04 12:23 | 18.86265 | 105.29336 | 36022 ft | 463 kts | 288° |
| 2026-05-04 12:24 | 18.88436 | 105.22982 | 36024 ft | 463 kts | 288° |
| 2026-05-04 12:24 | 18.90617 | 105.16593 | 36028 ft | 463 kts | 288° |
| 2026-05-04 12:25 | 18.92798 | 105.10198 | 36029 ft | 463 kts | 288° |
| 2026-05-04 12:25 | 18.94977 | 105.03798 | 36028 ft | 463 kts | 288° |
| 2026-05-04 12:26 | 18.97151 | 104.97409 | 36030 ft | 462 kts | 288° |
| 2026-05-04 12:26 | 18.99323 | 104.91014 | 36033 ft | 462 kts | 288° |
| 2026-05-04 12:27 | 19.01478 | 104.84660 | 36037 ft | 462 kts | 288° |
| 2026-05-04 12:27 | 19.03643 | 104.78270 | 36032 ft | 462 kts | 288° |
| 2026-05-04 12:28 | 19.05807 | 104.71876 | 36032 ft | 462 kts | 288° |
| 2026-05-04 12:28 | 19.07986 | 104.65430 | 36031 ft | 462 kts | 288° |
| 2026-05-04 12:29 | 19.10132 | 104.59069 | 36026 ft | 462 kts | 288° |
| 2026-05-04 12:29 | 19.12289 | 104.52672 | 36037 ft | 462 kts | 288° |
| 2026-05-04 12:30 | 19.14442 | 104.46274 | 36028 ft | 462 kts | 288° |
| 2026-05-04 12:30 | 19.16596 | 104.39870 | 36027 ft | 462 kts | 288° |
| 2026-05-04 12:31 | 19.18750 | 104.33454 | 36034 ft | 462 kts | 288° |
| 2026-05-04 12:31 | 19.20899 | 104.27042 | 36025 ft | 462 kts | 288° |
| 2026-05-04 12:32 | 19.24116 | 104.17437 | 36029 ft | 462 kts | 288° |
| 2026-05-04 12:33 | 19.26260 | 104.11021 | 36009 ft | 462 kts | 288° |
| 2026-05-04 12:33 | 19.28402 | 104.04601 | 36024 ft | 463 kts | 288° |
| 2026-05-04 12:34 | 19.30533 | 103.98211 | 36017 ft | 466 kts | 288° |
| 2026-05-04 12:34 | 19.32700 | 103.91699 | 36021 ft | 471 kts | 288° |
| 2026-05-04 12:35 | 19.34867 | 103.85100 | 36003 ft | 477 kts | 288° |
| 2026-05-04 12:35 | 19.37039 | 103.78447 | 36012 ft | 480 kts | 288° |
| 2026-05-04 12:36 | 19.39223 | 103.71759 | 36004 ft | 481 kts | 288° |
| 2026-05-04 12:36 | 19.41043 | 103.66187 | 36004 ft | 481 kts | 288° |
| 2026-05-04 12:37 | 19.43230 | 103.59495 | 35996 ft | 480 kts | 288° |
| 2026-05-04 12:37 | 19.45484 | 103.52855 | 35993 ft | 478 kts | 288° |
| 2026-05-04 12:38 | 19.47755 | 103.46245 | 35995 ft | 476 kts | 288° |
| 2026-05-04 12:38 | 19.50007 | 103.39655 | 35991 ft | 475 kts | 288° |
| 2026-05-04 12:39 | 19.52243 | 103.33076 | 35992 ft | 473 kts | 288° |
| 2026-05-04 12:39 | 19.54452 | 103.26560 | 35979 ft | 472 kts | 288° |
| 2026-05-04 12:40 | 19.56671 | 103.20008 | 35974 ft | 472 kts | 288° |
| 2026-05-04 12:40 | 19.58889 | 103.13448 | 35972 ft | 473 kts | 288° |
| 2026-05-04 12:41 | 19.61109 | 103.06877 | 35965 ft | 473 kts | 288° |
| 2026-05-04 12:41 | 19.63329 | 103.00297 | 35964 ft | 474 kts | 288° |
| 2026-05-04 12:42 | 19.65551 | 102.93701 | 35953 ft | 474 kts | 288° |
| 2026-05-04 12:42 | 19.67769 | 102.87108 | 35949 ft | 475 kts | 288° |
| 2026-05-04 12:43 | 19.69989 | 102.80500 | 35956 ft | 476 kts | 288° |
| 2026-05-04 12:43 | 19.72195 | 102.73925 | 35941 ft | 476 kts | 288° |
| 2026-05-04 12:44 | 19.74409 | 102.67316 | 35934 ft | 475 kts | 288° |
| 2026-05-04 12:44 | 19.76623 | 102.60703 | 35935 ft | 474 kts | 288° |
| 2026-05-04 12:45 | 19.78830 | 102.54097 | 35923 ft | 475 kts | 288° |
| 2026-05-04 12:45 | 19.81038 | 102.47477 | 35911 ft | 475 kts | 288° |
| 2026-05-04 12:46 | 19.83243 | 102.40859 | 35898 ft | 476 kts | 288° |
| 2026-05-04 12:46 | 19.85450 | 102.34227 | 35889 ft | 476 kts | 288° |
| 2026-05-04 12:47 | 19.87652 | 102.27599 | 35888 ft | 476 kts | 288° |
| 2026-05-04 12:47 | 19.89843 | 102.20997 | 35889 ft | 477 kts | 288° |
| 2026-05-04 12:48 | 19.92452 | 102.14527 | 35881 ft | 479 kts | 297° |
| 2026-05-04 12:48 | 19.95777 | 102.08398 | 35894 ft | 479 kts | 298° |
| 2026-05-04 12:49 | 19.99132 | 102.02259 | 35885 ft | 480 kts | 298° |
| 2026-05-04 12:49 | 20.02480 | 101.96073 | 35898 ft | 480 kts | 298° |
| 2026-05-04 12:50 | 20.05771 | 101.89947 | 35906 ft | 480 kts | 298° |
| 2026-05-04 12:50 | 20.09076 | 101.83782 | 35925 ft | 480 kts | 298° |
| 2026-05-04 12:51 | 20.12382 | 101.77613 | 35924 ft | 479 kts | 298° |
| 2026-05-04 12:51 | 20.15679 | 101.71452 | 35926 ft | 479 kts | 298° |
| 2026-05-04 12:52 | 20.18981 | 101.65278 | 35937 ft | 479 kts | 297° |
| 2026-05-04 12:52 | 20.22270 | 101.59122 | 35952 ft | 480 kts | 297° |
| 2026-05-04 12:53 | 20.25575 | 101.52930 | 35945 ft | 480 kts | 298° |
| 2026-05-04 12:53 | 20.28876 | 101.46736 | 35953 ft | 480 kts | 297° |
| 2026-05-04 12:54 | 20.32165 | 101.40559 | 35957 ft | 480 kts | 297° |
| 2026-05-04 12:54 | 20.35459 | 101.34366 | 35956 ft | 480 kts | 297° |
| 2026-05-04 12:55 | 20.38762 | 101.28150 | 35950 ft | 480 kts | 297° |
| 2026-05-04 12:55 | 20.42048 | 101.21961 | 35954 ft | 480 kts | 297° |
| 2026-05-04 12:56 | 20.45332 | 101.15765 | 35962 ft | 480 kts | 297° |
| 2026-05-04 12:56 | 20.48615 | 101.09566 | 35952 ft | 480 kts | 297° |
| 2026-05-04 12:57 | 20.51873 | 101.03408 | 35956 ft | 480 kts | 297° |
| 2026-05-04 12:57 | 20.55148 | 100.97209 | 35954 ft | 479 kts | 297° |
| 2026-05-04 12:58 | 20.58419 | 100.91013 | 35954 ft | 479 kts | 297° |
| 2026-05-04 12:58 | 20.61692 | 100.84805 | 35951 ft | 479 kts | 297° |
| 2026-05-04 12:59 | 20.64957 | 100.78605 | 35951 ft | 479 kts | 297° |
| 2026-05-04 12:59 | 20.68219 | 100.72405 | 35942 ft | 479 kts | 297° |
| 2026-05-04 13:00 | 20.71477 | 100.66205 | 35935 ft | 479 kts | 297° |
| 2026-05-04 13:00 | 20.74733 | 100.60001 | 35943 ft | 479 kts | 297° |
| 2026-05-04 13:01 | 20.77989 | 100.53789 | 35940 ft | 479 kts | 297° |
| 2026-05-04 13:01 | 20.81137 | 100.47511 | 35930 ft | 479 kts | 293° |
| 2026-05-04 13:02 | 20.83390 | 100.40813 | 35930 ft | 478 kts | 285° |
| 2026-05-04 13:02 | 20.85205 | 100.33980 | 35928 ft | 478 kts | 285° |
| 2026-05-04 13:03 | 20.87027 | 100.27130 | 35929 ft | 479 kts | 285° |
| 2026-05-04 13:03 | 20.88869 | 100.20282 | 35920 ft | 479 kts | 285° |
| 2026-05-04 13:04 | 20.90706 | 100.13484 | 35942 ft | 479 kts | 285° |
| 2026-05-04 13:04 | 20.92553 | 100.06647 | 35933 ft | 479 kts | 285° |
| 2026-05-04 13:05 | 20.94399 | 99.99799 | 35938 ft | 479 kts | 285° |
| 2026-05-04 13:05 | 20.96242 | 99.92946 | 35951 ft | 479 kts | 285° |
| 2026-05-04 13:06 | 20.98082 | 99.86094 | 35953 ft | 479 kts | 285° |
| 2026-05-04 13:06 | 20.99921 | 99.79230 | 35961 ft | 480 kts | 285° |
| 2026-05-04 13:07 | 21.01762 | 99.72346 | 35968 ft | 482 kts | 285° |
| 2026-05-04 13:07 | 21.03609 | 99.65429 | 35965 ft | 484 kts | 285° |
| 2026-05-04 13:08 | 21.05459 | 99.58493 | 35975 ft | 486 kts | 285° |
| 2026-05-04 13:08 | 21.07314 | 99.51522 | 35968 ft | 487 kts | 285° |
| 2026-05-04 13:09 | 21.09169 | 99.44535 | 35958 ft | 488 kts | 285° |
| 2026-05-04 13:09 | 21.11026 | 99.37533 | 35953 ft | 489 kts | 285° |
| 2026-05-04 13:10 | 21.12868 | 99.30574 | 35951 ft | 488 kts | 285° |
| 2026-05-04 13:10 | 21.14718 | 99.23573 | 35944 ft | 488 kts | 285° |
| 2026-05-04 13:11 | 21.16517 | 99.16752 | 35936 ft | 488 kts | 285° |
| 2026-05-04 13:11 | 21.18357 | 99.09762 | 35937 ft | 487 kts | 285° |
| 2026-05-04 13:12 | 21.20194 | 99.02768 | 35925 ft | 487 kts | 285° |
| 2026-05-04 13:12 | 21.22027 | 98.95783 | 35916 ft | 487 kts | 285° |
| 2026-05-04 13:13 | 21.23857 | 98.88800 | 35920 ft | 486 kts | 285° |
| 2026-05-04 13:13 | 21.25681 | 98.81819 | 35916 ft | 486 kts | 285° |
| 2026-05-04 13:14 | 21.27503 | 98.74831 | 35911 ft | 487 kts | 284° |
| 2026-05-04 13:14 | 21.29327 | 98.67831 | 35906 ft | 488 kts | 285° |
| 2026-05-04 13:15 | 21.31145 | 98.60832 | 35907 ft | 488 kts | 284° |
| 2026-05-04 13:15 | 21.32964 | 98.53821 | 35914 ft | 488 kts | 284° |
| 2026-05-04 13:16 | 21.34781 | 98.46805 | 35921 ft | 488 kts | 284° |
| 2026-05-04 13:16 | 21.36594 | 98.39790 | 35913 ft | 488 kts | 284° |
| 2026-05-04 13:17 | 21.38407 | 98.32763 | 35918 ft | 488 kts | 284° |
| 2026-05-04 13:17 | 21.40215 | 98.25744 | 35928 ft | 488 kts | 284° |
| 2026-05-04 13:18 | 21.42012 | 98.18756 | 35936 ft | 488 kts | 284° |
| 2026-05-04 13:18 | 21.43814 | 98.11729 | 35942 ft | 489 kts | 284° |
| 2026-05-04 13:19 | 21.45617 | 98.04689 | 35940 ft | 489 kts | 284° |
| 2026-05-04 13:19 | 21.47417 | 97.97649 | 35951 ft | 489 kts | 284° |
| 2026-05-04 13:20 | 21.49213 | 97.90611 | 35953 ft | 489 kts | 284° |
| 2026-05-04 13:20 | 21.51006 | 97.83567 | 35958 ft | 489 kts | 284° |
| 2026-05-04 13:21 | 21.52795 | 97.76526 | 35962 ft | 488 kts | 284° |
| 2026-05-04 13:21 | 21.54579 | 97.69494 | 35963 ft | 488 kts | 284° |
| 2026-05-04 13:22 | 21.56360 | 97.62461 | 35961 ft | 487 kts | 284° |
| 2026-05-04 13:22 | 21.58136 | 97.55437 | 35961 ft | 487 kts | 284° |
| 2026-05-04 13:23 | 21.59608 | 97.49601 | 35955 ft | 487 kts | 284° |
| 2026-05-04 13:23 | 21.61376 | 97.42583 | 35958 ft | 486 kts | 284° |
| 2026-05-04 13:24 | 21.63425 | 97.34429 | 35950 ft | 486 kts | 284° |
| 2026-05-04 13:24 | 21.64899 | 97.28552 | 35944 ft | 486 kts | 284° |
| 2026-05-04 13:25 | 21.67530 | 97.18038 | 35937 ft | 485 kts | 284° |
| 2026-05-04 13:25 | 21.69279 | 97.11031 | 35934 ft | 485 kts | 284° |
| 2026-05-04 13:26 | 21.71025 | 97.04025 | 35933 ft | 485 kts | 284° |
| 2026-05-04 13:26 | 21.72769 | 96.97014 | 35934 ft | 485 kts | 284° |
| 2026-05-04 13:27 | 21.74508 | 96.90010 | 35926 ft | 485 kts | 284° |
| 2026-05-04 13:27 | 21.76233 | 96.83045 | 35923 ft | 485 kts | 284° |
| 2026-05-04 13:28 | 21.77967 | 96.76032 | 35931 ft | 485 kts | 284° |
| 2026-05-04 13:28 | 21.79700 | 96.69011 | 35929 ft | 486 kts | 284° |
| 2026-05-04 13:29 | 21.81435 | 96.61969 | 35926 ft | 486 kts | 284° |
| 2026-05-04 13:29 | 21.83165 | 96.54932 | 35920 ft | 487 kts | 284° |
| 2026-05-04 13:30 | 21.84893 | 96.47886 | 35895 ft | 487 kts | 284° |
| 2026-05-04 13:30 | 21.86618 | 96.40842 | 35906 ft | 486 kts | 284° |
| 2026-05-04 13:31 | 21.88342 | 96.33787 | 35897 ft | 486 kts | 284° |
| 2026-05-04 13:31 | 21.90060 | 96.26738 | 35883 ft | 486 kts | 284° |
| 2026-05-04 13:32 | 21.91774 | 96.19696 | 35875 ft | 486 kts | 284° |
| 2026-05-04 13:32 | 21.93372 | 96.12685 | 35873 ft | 485 kts | 280° |
| 2026-05-04 13:33 | 21.94137 | 96.05480 | 35869 ft | 484 kts | 275° |
| 2026-05-04 13:33 | 21.94721 | 95.98250 | 35855 ft | 484 kts | 275° |
| 2026-05-04 13:34 | 21.95321 | 95.91021 | 35858 ft | 485 kts | 275° |
| 2026-05-04 13:34 | 21.95940 | 95.83783 | 35862 ft | 485 kts | 275° |
| 2026-05-04 13:35 | 21.96872 | 95.72964 | 35855 ft | 485 kts | 275° |
| 2026-05-04 13:36 | 21.97491 | 95.65720 | 35855 ft | 486 kts | 275° |
| 2026-05-04 13:36 | 21.98107 | 95.58460 | 35855 ft | 486 kts | 275° |
| 2026-05-04 13:37 | 21.98720 | 95.51205 | 35863 ft | 486 kts | 275° |
| 2026-05-04 13:37 | 21.99329 | 95.43956 | 35860 ft | 486 kts | 275° |
| 2026-05-04 13:38 | 21.99934 | 95.36701 | 35861 ft | 486 kts | 275° |
| 2026-05-04 13:38 | 22.00537 | 95.29447 | 35869 ft | 486 kts | 275° |
| 2026-05-04 13:39 | 22.01137 | 95.22192 | 35867 ft | 486 kts | 275° |
| 2026-05-04 13:39 | 22.01733 | 95.14935 | 35867 ft | 486 kts | 275° |
| 2026-05-04 13:40 | 22.02326 | 95.07685 | 35868 ft | 486 kts | 275° |
| 2026-05-04 13:40 | 22.02912 | 95.00476 | 35875 ft | 486 kts | 275° |
| 2026-05-04 13:41 | 22.03498 | 94.93221 | 35877 ft | 486 kts | 275° |
| 2026-05-04 13:41 | 22.04082 | 94.85966 | 35880 ft | 486 kts | 275° |
| 2026-05-04 13:42 | 22.04951 | 94.75083 | 35893 ft | 486 kts | 275° |
| 2026-05-04 13:42 | 22.05526 | 94.67821 | 35896 ft | 486 kts | 275° |
| 2026-05-04 13:43 | 22.06098 | 94.60569 | 35905 ft | 486 kts | 275° |
| 2026-05-04 13:43 | 22.06668 | 94.53299 | 35918 ft | 486 kts | 275° |
| 2026-05-04 13:44 | 22.07234 | 94.46036 | 35910 ft | 486 kts | 275° |
| 2026-05-04 13:44 | 22.07797 | 94.38770 | 35924 ft | 486 kts | 274° |
| 2026-05-04 13:45 | 22.08353 | 94.31558 | 35923 ft | 487 kts | 274° |
| 2026-05-04 13:45 | 22.08910 | 94.24287 | 35925 ft | 486 kts | 274° |
| 2026-05-04 13:46 | 22.09463 | 94.17020 | 35935 ft | 486 kts | 274° |
| 2026-05-04 13:46 | 22.10013 | 94.09763 | 35936 ft | 485 kts | 274° |
| 2026-05-04 13:47 | 22.10558 | 94.02514 | 35944 ft | 485 kts | 274° |
| 2026-05-04 13:47 | 22.11100 | 93.95276 | 35946 ft | 484 kts | 274° |
| 2026-05-04 13:48 | 22.11638 | 93.88036 | 35960 ft | 484 kts | 274° |
| 2026-05-04 13:48 | 22.12173 | 93.80802 | 35974 ft | 484 kts | 274° |
| 2026-05-04 13:49 | 22.12704 | 93.73575 | 35992 ft | 484 kts | 274° |
| 2026-05-04 13:49 | 22.13232 | 93.66345 | 36008 ft | 483 kts | 274° |
| 2026-05-04 13:50 | 22.13756 | 93.59119 | 36009 ft | 483 kts | 274° |
| 2026-05-04 13:50 | 22.14277 | 93.51905 | 36004 ft | 482 kts | 274° |
| 2026-05-04 13:51 | 22.14794 | 93.44693 | 36011 ft | 482 kts | 274° |
| 2026-05-04 13:51 | 22.15307 | 93.37490 | 36014 ft | 481 kts | 274° |
| 2026-05-04 13:52 | 22.16067 | 93.26741 | 36004 ft | 481 kts | 274° |
| 2026-05-04 13:53 | 22.16571 | 93.19546 | 36003 ft | 481 kts | 274° |
| 2026-05-04 13:53 | 22.17072 | 93.12367 | 35976 ft | 479 kts | 274° |
| 2026-05-04 13:54 | 22.17816 | 93.01616 | 35979 ft | 479 kts | 274° |
| 2026-05-04 13:55 | 22.18552 | 92.90863 | 35972 ft | 479 kts | 274° |
| 2026-05-04 13:55 | 22.19281 | 92.80100 | 35964 ft | 479 kts | 274° |
| 2026-05-04 13:56 | 22.19764 | 92.72928 | 35934 ft | 479 kts | 274° |
| 2026-05-04 13:57 | 22.20473 | 92.62246 | 35942 ft | 478 kts | 274° |
| 2026-05-04 13:58 | 22.21350 | 92.47965 | 35935 ft | 477 kts | 274° |
| 2026-05-04 13:58 | 22.22004 | 92.37256 | 35911 ft | 477 kts | 273° |
| 2026-05-04 13:59 | 22.22437 | 92.30113 | 35924 ft | 476 kts | 273° |
| 2026-05-04 14:00 | 22.23159 | 92.19414 | 35913 ft | 476 kts | 274° |
| 2026-05-04 14:00 | 22.23954 | 92.08717 | 35894 ft | 476 kts | 274° |
| 2026-05-04 14:01 | 22.24468 | 92.01593 | 35880 ft | 476 kts | 274° |
| 2026-05-04 14:02 | 22.25225 | 91.90943 | 35863 ft | 476 kts | 274° |
| 2026-05-04 14:02 | 22.25729 | 91.83811 | 35862 ft | 476 kts | 274° |
| 2026-05-04 14:03 | 22.26404 | 91.76651 | 35861 ft | 477 kts | 276° |
| 2026-05-04 14:03 | 22.27278 | 91.69604 | 35861 ft | 477 kts | 277° |
| 2026-05-04 14:04 | 22.28542 | 91.58951 | 35878 ft | 477 kts | 276° |
| 2026-05-04 14:04 | 22.29345 | 91.51872 | 35883 ft | 477 kts | 276° |
| 2026-05-04 14:05 | 22.30549 | 91.41216 | 35900 ft | 477 kts | 276° |
| 2026-05-04 14:06 | 22.31370 | 91.34118 | 35901 ft | 477 kts | 276° |
| 2026-05-04 14:06 | 22.32256 | 91.27021 | 35893 ft | 477 kts | 277° |
| 2026-05-04 14:07 | 22.33148 | 91.19930 | 35894 ft | 477 kts | 277° |
| 2026-05-04 14:07 | 22.34028 | 91.12833 | 35895 ft | 477 kts | 277° |
| 2026-05-04 14:08 | 22.34895 | 91.05774 | 35897 ft | 477 kts | 276° |
| 2026-05-04 14:08 | 22.35769 | 90.98621 | 35894 ft | 477 kts | 276° |
| 2026-05-04 14:09 | 22.36920 | 90.89166 | 35892 ft | 477 kts | 276° |
| 2026-05-04 14:10 | 22.38352 | 90.77339 | 35893 ft | 478 kts | 276° |
| 2026-05-04 14:10 | 22.39209 | 90.70221 | 35891 ft | 478 kts | 276° |
| 2026-05-04 14:11 | 22.39925 | 90.64261 | 35880 ft | 478 kts | 276° |
| 2026-05-04 14:11 | 22.41196 | 90.53625 | 35883 ft | 478 kts | 276° |
| 2026-05-04 14:12 | 22.42042 | 90.46512 | 35880 ft | 478 kts | 276° |
| 2026-05-04 14:13 | 22.43307 | 90.35831 | 35881 ft | 478 kts | 276° |
| 2026-05-04 14:13 | 22.44146 | 90.28710 | 35882 ft | 478 kts | 276° |
| 2026-05-04 14:14 | 22.44982 | 90.21587 | 35878 ft | 478 kts | 276° |
| 2026-05-04 14:14 | 22.46230 | 90.10901 | 35869 ft | 478 kts | 276° |
| 2026-05-04 14:15 | 22.47885 | 89.96638 | 35884 ft | 478 kts | 276° |
| 2026-05-04 14:16 | 22.49117 | 89.85946 | 35873 ft | 478 kts | 276° |
| 2026-05-04 14:17 | 22.50343 | 89.75244 | 35871 ft | 478 kts | 276° |
| 2026-05-04 14:18 | 22.51562 | 89.64537 | 35869 ft | 478 kts | 276° |
| 2026-05-04 14:19 | 22.53172 | 89.50295 | 35865 ft | 478 kts | 275° |
| 2026-05-04 14:19 | 22.53976 | 89.43146 | 35864 ft | 479 kts | 275° |
| 2026-05-04 14:20 | 22.54776 | 89.35995 | 35865 ft | 479 kts | 275° |
| 2026-05-04 14:20 | 22.55573 | 89.28844 | 35861 ft | 479 kts | 275° |
| 2026-05-04 14:21 | 22.56763 | 89.18118 | 35862 ft | 479 kts | 275° |
| 2026-05-04 14:21 | 22.57552 | 89.10968 | 35862 ft | 478 kts | 275° |
| 2026-05-04 14:22 | 22.58337 | 89.03827 | 35860 ft | 478 kts | 275° |
| 2026-05-04 14:22 | 22.59115 | 88.96722 | 35867 ft | 479 kts | 275° |
| 2026-05-04 14:23 | 22.60700 | 88.86056 | 35856 ft | 479 kts | 279° |
| 2026-05-04 14:24 | 22.61921 | 88.78973 | 35862 ft | 478 kts | 278° |
| 2026-05-04 14:24 | 22.63117 | 88.71891 | 35858 ft | 478 kts | 278° |
| 2026-05-04 14:25 | 22.64293 | 88.64814 | 35862 ft | 478 kts | 278° |
| 2026-05-04 14:25 | 22.66051 | 88.54191 | 35859 ft | 477 kts | 278° |
| 2026-05-04 14:26 | 22.67219 | 88.47121 | 35858 ft | 477 kts | 278° |
| 2026-05-04 14:26 | 22.67991 | 88.40000 | 35865 ft | 475 kts | 273° |
| 2026-05-04 14:27 | 22.68438 | 88.32859 | 35859 ft | 475 kts | 272° |
| 2026-05-04 14:27 | 22.68883 | 88.25708 | 35858 ft | 476 kts | 272° |
| 2026-05-04 14:28 | 22.69344 | 88.18559 | 35855 ft | 475 kts | 272° |
| 2026-05-04 14:28 | 22.69809 | 88.11463 | 35857 ft | 475 kts | 272° |
| 2026-05-04 14:29 | 22.70737 | 87.97178 | 35858 ft | 475 kts | 272° |
| 2026-05-04 14:30 | 22.71195 | 87.90044 | 35858 ft | 475 kts | 272° |
| 2026-05-04 14:31 | 22.71876 | 87.79350 | 35860 ft | 475 kts | 272° |
| 2026-05-04 14:32 | 22.72772 | 87.65080 | 35856 ft | 474 kts | 272° |
| 2026-05-04 14:32 | 22.73216 | 87.57943 | 35858 ft | 474 kts | 272° |
| 2026-05-04 14:33 | 22.73652 | 87.50867 | 35857 ft | 474 kts | 272° |
| 2026-05-04 14:33 | 22.74089 | 87.43744 | 35858 ft | 474 kts | 272° |
| 2026-05-04 14:34 | 22.74522 | 87.36617 | 35857 ft | 474 kts | 272° |
| 2026-05-04 14:34 | 22.74952 | 87.29493 | 35854 ft | 474 kts | 272° |
| 2026-05-04 14:35 | 22.75379 | 87.22370 | 35856 ft | 474 kts | 272° |
| 2026-05-04 14:35 | 22.75803 | 87.15246 | 35856 ft | 474 kts | 271° |
| 2026-05-04 14:36 | 22.76223 | 87.08130 | 35858 ft | 473 kts | 271° |
| 2026-05-04 14:36 | 22.76640 | 87.01003 | 35861 ft | 473 kts | 271° |
| 2026-05-04 14:37 | 22.77054 | 86.93885 | 35864 ft | 473 kts | 271° |
| 2026-05-04 14:37 | 22.77462 | 86.86819 | 35867 ft | 473 kts | 271° |
| 2026-05-04 14:38 | 22.77869 | 86.79709 | 35872 ft | 472 kts | 271° |
| 2026-05-04 14:38 | 22.78272 | 86.72609 | 35873 ft | 472 kts | 271° |
| 2026-05-04 14:39 | 22.78672 | 86.65514 | 35879 ft | 472 kts | 271° |
| 2026-05-04 14:39 | 22.79069 | 86.58420 | 35880 ft | 471 kts | 271° |
| 2026-05-04 14:40 | 22.79656 | 86.47803 | 35882 ft | 471 kts | 271° |
| 2026-05-04 14:40 | 22.80045 | 86.40705 | 35883 ft | 470 kts | 271° |
| 2026-05-04 14:41 | 22.80429 | 86.33635 | 35895 ft | 470 kts | 271° |
| 2026-05-04 14:42 | 22.80914 | 86.19541 | 35960 ft | 466 kts | 264° |
| 2026-05-04 14:42 | 22.80562 | 86.16053 | 36211 ft | 465 kts | 261° |
| 2026-05-04 14:42 | 22.80024 | 86.12608 | 36499 ft | 462 kts | 257° |
| 2026-05-04 14:43 | 22.79244 | 86.09283 | 36768 ft | 461 kts | 254° |
| 2026-05-04 14:43 | 22.78369 | 86.05954 | 37035 ft | 460 kts | 253° |
| 2026-05-04 14:43 | 22.77472 | 86.02632 | 37280 ft | 459 kts | 253° |
| 2026-05-04 14:43 | 22.76571 | 85.99318 | 37494 ft | 459 kts | 253° |
| 2026-05-04 14:44 | 22.75674 | 85.95999 | 37714 ft | 459 kts | 253° |
| 2026-05-04 14:44 | 22.74783 | 85.92680 | 37828 ft | 459 kts | 253° |
| 2026-05-04 14:44 | 22.73009 | 85.86017 | 37928 ft | 460 kts | 253° |
| 2026-05-04 14:45 | 22.71243 | 85.79354 | 37925 ft | 459 kts | 254° |
| 2026-05-04 14:45 | 22.69498 | 85.72782 | 37926 ft | 450 kts | 253° |
| 2026-05-04 14:46 | 22.67773 | 85.66295 | 37929 ft | 446 kts | 253° |
| 2026-05-04 14:46 | 22.66055 | 85.59851 | 37932 ft | 445 kts | 253° |
| 2026-05-04 14:47 | 22.64338 | 85.53421 | 37935 ft | 444 kts | 253° |
| 2026-05-04 14:47 | 22.62618 | 85.46988 | 37939 ft | 445 kts | 253° |
| 2026-05-04 14:48 | 22.60901 | 85.40587 | 37938 ft | 447 kts | 253° |
| 2026-05-04 14:48 | 22.59163 | 85.34114 | 37933 ft | 448 kts | 253° |
| 2026-05-04 14:49 | 22.57420 | 85.27629 | 37934 ft | 449 kts | 253° |
| 2026-05-04 14:49 | 22.55670 | 85.21131 | 37929 ft | 450 kts | 253° |
| 2026-05-04 14:50 | 22.53916 | 85.14630 | 37928 ft | 450 kts | 253° |
| 2026-05-04 14:50 | 22.52157 | 85.08128 | 37928 ft | 450 kts | 253° |
| 2026-05-04 14:51 | 22.50399 | 85.01635 | 37923 ft | 450 kts | 253° |
| 2026-05-04 14:51 | 22.48641 | 84.95153 | 37925 ft | 449 kts | 253° |
| 2026-05-04 14:52 | 22.46884 | 84.88686 | 37912 ft | 448 kts | 253° |
| 2026-05-04 14:52 | 22.45127 | 84.82234 | 37914 ft | 447 kts | 253° |
| 2026-05-04 14:53 | 22.43370 | 84.75787 | 37914 ft | 447 kts | 253° |
| 2026-05-04 14:53 | 22.41607 | 84.69336 | 37912 ft | 447 kts | 253° |
| 2026-05-04 14:54 | 22.39845 | 84.62895 | 37911 ft | 448 kts | 253° |
| 2026-05-04 14:54 | 22.38076 | 84.56438 | 37910 ft | 449 kts | 253° |
| 2026-05-04 14:55 | 22.36299 | 84.49967 | 37905 ft | 450 kts | 253° |
| 2026-05-04 14:55 | 22.34528 | 84.43527 | 37902 ft | 451 kts | 253° |
| 2026-05-04 14:56 | 22.32736 | 84.37020 | 37900 ft | 452 kts | 253° |
| 2026-05-04 14:56 | 22.30937 | 84.30503 | 37897 ft | 453 kts | 253° |
| 2026-05-04 14:57 | 22.29134 | 84.23979 | 37898 ft | 454 kts | 253° |
| 2026-05-04 14:57 | 22.27324 | 84.17441 | 37891 ft | 455 kts | 253° |
| 2026-05-04 14:58 | 22.25816 | 84.12002 | 37889 ft | 455 kts | 253° |
| 2026-05-04 14:58 | 22.23999 | 84.05461 | 37873 ft | 456 kts | 253° |
| 2026-05-04 14:59 | 22.22174 | 83.98901 | 37871 ft | 456 kts | 253° |
| 2026-05-04 15:00 | 22.19434 | 83.89072 | 37863 ft | 456 kts | 253° |
| 2026-05-04 15:00 | 22.17602 | 83.82517 | 37872 ft | 456 kts | 253° |
| 2026-05-04 15:01 | 22.14848 | 83.72678 | 37870 ft | 457 kts | 253° |
| 2026-05-04 15:01 | 22.13009 | 83.66123 | 37860 ft | 457 kts | 253° |
| 2026-05-04 15:02 | 22.11163 | 83.59552 | 37852 ft | 458 kts | 253° |
| 2026-05-04 15:02 | 22.09313 | 83.52979 | 37862 ft | 458 kts | 253° |
| 2026-05-04 15:03 | 22.07459 | 83.46400 | 37840 ft | 459 kts | 253° |
| 2026-05-04 15:03 | 22.05683 | 83.39787 | 37840 ft | 459 kts | 254° |
| 2026-05-04 15:04 | 22.03962 | 83.33204 | 37832 ft | 459 kts | 254° |
| 2026-05-04 15:04 | 22.02221 | 83.26579 | 37833 ft | 459 kts | 253° |
| 2026-05-04 15:05 | 22.00467 | 83.19958 | 37836 ft | 459 kts | 253° |
| 2026-05-04 15:05 | 21.98706 | 83.13335 | 37834 ft | 459 kts | 253° |
| 2026-05-04 15:06 | 21.96944 | 83.06722 | 37831 ft | 459 kts | 253° |
| 2026-05-04 15:07 | 21.94299 | 82.96811 | 37826 ft | 458 kts | 253° |
| 2026-05-04 15:07 | 21.92536 | 82.90219 | 37819 ft | 458 kts | 253° |
| 2026-05-04 15:08 | 21.90769 | 82.83625 | 37818 ft | 457 kts | 253° |
| 2026-05-04 15:08 | 21.89014 | 82.77088 | 37817 ft | 457 kts | 253° |
| 2026-05-04 15:09 | 21.87248 | 82.70519 | 37812 ft | 457 kts | 253° |
| 2026-05-04 15:09 | 21.85479 | 82.63951 | 37807 ft | 456 kts | 253° |
| 2026-05-04 15:10 | 21.82823 | 82.54110 | 37797 ft | 456 kts | 253° |
| 2026-05-04 15:11 | 21.80167 | 82.44294 | 37791 ft | 456 kts | 253° |
| 2026-05-04 15:11 | 21.78386 | 82.37726 | 37788 ft | 456 kts | 253° |
| 2026-05-04 15:12 | 21.76608 | 82.31181 | 37783 ft | 456 kts | 253° |
| 2026-05-04 15:12 | 21.74823 | 82.24617 | 37775 ft | 457 kts | 253° |
| 2026-05-04 15:13 | 21.73045 | 82.18093 | 37776 ft | 457 kts | 253° |
| 2026-05-04 15:13 | 21.71255 | 82.11535 | 37774 ft | 457 kts | 253° |
| 2026-05-04 15:14 | 21.69461 | 82.04972 | 37768 ft | 458 kts | 253° |
| 2026-05-04 15:14 | 21.67658 | 81.98394 | 37770 ft | 458 kts | 253° |
| 2026-05-04 15:15 | 21.65843 | 81.91821 | 37768 ft | 459 kts | 253° |
| 2026-05-04 15:15 | 21.64024 | 81.85251 | 37767 ft | 459 kts | 253° |
| 2026-05-04 15:16 | 21.61292 | 81.75397 | 37767 ft | 458 kts | 253° |
| 2026-05-04 15:17 | 21.58571 | 81.65601 | 37772 ft | 458 kts | 253° |
| 2026-05-04 15:17 | 21.55837 | 81.55784 | 37773 ft | 457 kts | 253° |
| 2026-05-04 15:18 | 21.54015 | 81.49252 | 37781 ft | 456 kts | 253° |
| 2026-05-04 15:19 | 21.51283 | 81.39480 | 37779 ft | 455 kts | 253° |
| 2026-05-04 15:19 | 21.48551 | 81.29733 | 37781 ft | 454 kts | 253° |
| 2026-05-04 15:20 | 21.46729 | 81.23246 | 37781 ft | 454 kts | 253° |
| 2026-05-04 15:20 | 21.44903 | 81.16757 | 37785 ft | 454 kts | 253° |
| 2026-05-04 15:21 | 21.43078 | 81.10277 | 37782 ft | 454 kts | 253° |
| 2026-05-04 15:22 | 21.40334 | 81.00559 | 37784 ft | 454 kts | 253° |
| 2026-05-04 15:22 | 21.37584 | 80.90839 | 37779 ft | 454 kts | 253° |
| 2026-05-04 15:23 | 21.35757 | 80.84395 | 37777 ft | 454 kts | 253° |
| 2026-05-04 15:23 | 21.33915 | 80.77907 | 37774 ft | 455 kts | 253° |
| 2026-05-04 15:24 | 21.30219 | 80.64928 | 37766 ft | 455 kts | 253° |
| 2026-05-04 15:25 | 21.28367 | 80.58435 | 37774 ft | 455 kts | 253° |
| 2026-05-04 15:26 | 21.25583 | 80.48690 | 37763 ft | 455 kts | 253° |
| 2026-05-04 15:26 | 21.22804 | 80.38992 | 37756 ft | 455 kts | 253° |
| 2026-05-04 15:27 | 21.20011 | 80.29261 | 37749 ft | 455 kts | 253° |
| 2026-05-04 15:28 | 21.17210 | 80.19529 | 37748 ft | 455 kts | 253° |
| 2026-05-04 15:29 | 21.14404 | 80.09801 | 37750 ft | 455 kts | 253° |
| 2026-05-04 15:30 | 21.07841 | 79.87141 | 37744 ft | 456 kts | 253° |
| 2026-05-04 15:31 | 21.05011 | 79.77409 | 37748 ft | 456 kts | 253° |
| 2026-05-04 15:32 | 21.00294 | 79.61234 | 37727 ft | 442 kts | 253° |
| 2026-05-04 15:33 | 20.98518 | 79.55163 | 37721 ft | 413 kts | 253° |
| 2026-05-04 15:34 | 20.95921 | 79.46291 | 37750 ft | 426 kts | 253° |
| 2026-05-04 15:34 | 20.93225 | 79.37109 | 37742 ft | 433 kts | 253° |
| 2026-05-04 15:35 | 20.90532 | 79.27952 | 37732 ft | 424 kts | 253° |
| 2026-05-04 15:36 | 20.88070 | 79.18950 | 37740 ft | 419 kts | 255° |
| 2026-05-04 15:36 | 20.86488 | 79.12964 | 37744 ft | 418 kts | 255° |
| 2026-05-04 15:37 | 20.84896 | 79.06990 | 37750 ft | 419 kts | 254° |
| 2026-05-04 15:37 | 20.83274 | 79.00952 | 37756 ft | 426 kts | 254° |
| 2026-05-04 15:38 | 20.81640 | 78.94886 | 37745 ft | 428 kts | 254° |
| 2026-05-04 15:38 | 20.79989 | 78.88772 | 37745 ft | 428 kts | 254° |
| 2026-05-04 15:39 | 20.78338 | 78.82661 | 37743 ft | 427 kts | 255° |
| 2026-05-04 15:40 | 20.75867 | 78.73538 | 37739 ft | 425 kts | 255° |
| 2026-05-04 15:40 | 20.74226 | 78.67487 | 37742 ft | 423 kts | 255° |
| 2026-05-04 15:41 | 20.72588 | 78.61456 | 37744 ft | 422 kts | 255° |
| 2026-05-04 15:41 | 20.70962 | 78.55481 | 37747 ft | 421 kts | 255° |
| 2026-05-04 15:42 | 20.69325 | 78.49473 | 37745 ft | 421 kts | 255° |
| 2026-05-04 15:42 | 20.67687 | 78.43468 | 37751 ft | 421 kts | 255° |
| 2026-05-04 15:43 | 20.66042 | 78.37451 | 37749 ft | 423 kts | 255° |
| 2026-05-04 15:43 | 20.64390 | 78.31414 | 37750 ft | 424 kts | 255° |
| 2026-05-04 15:44 | 20.62731 | 78.25362 | 37753 ft | 425 kts | 255° |
| 2026-05-04 15:44 | 20.61068 | 78.19301 | 37753 ft | 426 kts | 255° |
| 2026-05-04 15:45 | 20.59680 | 78.14250 | 37755 ft | 427 kts | 255° |
| 2026-05-04 15:45 | 20.58006 | 78.08167 | 37754 ft | 427 kts | 255° |
| 2026-05-04 15:46 | 20.56330 | 78.02083 | 37749 ft | 427 kts | 255° |
| 2026-05-04 15:46 | 20.54686 | 77.96003 | 37756 ft | 426 kts | 255° |
| 2026-05-04 15:47 | 20.53049 | 77.89931 | 37755 ft | 425 kts | 255° |
| 2026-05-04 15:47 | 20.51419 | 77.83868 | 37752 ft | 425 kts | 255° |
| 2026-05-04 15:48 | 20.49811 | 77.77809 | 37758 ft | 424 kts | 255° |
| 2026-05-04 15:48 | 20.47400 | 77.68732 | 37758 ft | 424 kts | 255° |
| 2026-05-04 15:49 | 20.45790 | 77.62691 | 37776 ft | 423 kts | 255° |
| 2026-05-04 15:49 | 20.44178 | 77.56655 | 37769 ft | 423 kts | 255° |
| 2026-05-04 15:50 | 20.42573 | 77.50655 | 37766 ft | 424 kts | 255° |
| 2026-05-04 15:50 | 20.40956 | 77.44619 | 37773 ft | 424 kts | 255° |
| 2026-05-04 15:51 | 20.39334 | 77.38571 | 37782 ft | 424 kts | 255° |
| 2026-05-04 15:51 | 20.37706 | 77.32511 | 37794 ft | 426 kts | 255° |
| 2026-05-04 15:52 | 20.36072 | 77.26440 | 37779 ft | 427 kts | 255° |
| 2026-05-04 15:52 | 20.34429 | 77.20343 | 37778 ft | 429 kts | 255° |
| 2026-05-04 15:53 | 20.32780 | 77.14231 | 37775 ft | 430 kts | 255° |
| 2026-05-04 15:53 | 20.31126 | 77.08112 | 37791 ft | 430 kts | 255° |
| 2026-05-04 15:54 | 20.29466 | 77.01980 | 37778 ft | 430 kts | 255° |
| 2026-05-04 15:54 | 20.27807 | 76.95862 | 37790 ft | 430 kts | 255° |
| 2026-05-04 15:55 | 20.26149 | 76.89754 | 37799 ft | 429 kts | 255° |
| 2026-05-04 15:55 | 20.24492 | 76.83661 | 37790 ft | 428 kts | 255° |
| 2026-05-04 15:56 | 20.22833 | 76.77567 | 37794 ft | 428 kts | 255° |
| 2026-05-04 15:56 | 20.21187 | 76.71531 | 37793 ft | 427 kts | 255° |
| 2026-05-04 15:57 | 20.19531 | 76.65469 | 37802 ft | 426 kts | 255° |
| 2026-05-04 15:57 | 20.17874 | 76.59410 | 37802 ft | 426 kts | 255° |
| 2026-05-04 15:58 | 20.16207 | 76.53321 | 37822 ft | 434 kts | 255° |
| 2026-05-04 15:58 | 20.14490 | 76.47059 | 37817 ft | 446 kts | 255° |
| 2026-05-04 15:59 | 20.12738 | 76.40680 | 37819 ft | 450 kts | 255° |
| 2026-05-04 15:59 | 20.10977 | 76.34285 | 37825 ft | 450 kts | 255° |
| 2026-05-04 16:00 | 20.09217 | 76.27898 | 37827 ft | 447 kts | 255° |
| 2026-05-04 16:00 | 20.07475 | 76.21587 | 37825 ft | 442 kts | 255° |
| 2026-05-04 16:01 | 20.05755 | 76.15363 | 37815 ft | 441 kts | 255° |
| 2026-05-04 16:01 | 20.04024 | 76.09109 | 37821 ft | 441 kts | 255° |
| 2026-05-04 16:02 | 20.02288 | 76.02841 | 37830 ft | 443 kts | 255° |
| 2026-05-04 16:03 | 19.99664 | 75.93390 | 37830 ft | 445 kts | 255° |
| 2026-05-04 16:03 | 19.97905 | 75.87058 | 37835 ft | 447 kts | 255° |
| 2026-05-04 16:04 | 19.96140 | 75.80714 | 37838 ft | 448 kts | 255° |
| 2026-05-04 16:04 | 19.93480 | 75.71171 | 37844 ft | 449 kts | 255° |
| 2026-05-04 16:05 | 19.91706 | 75.64817 | 37850 ft | 450 kts | 255° |
| 2026-05-04 16:06 | 19.89001 | 75.55142 | 37864 ft | 458 kts | 255° |
| 2026-05-04 16:06 | 19.86580 | 75.46511 | 37745 ft | 454 kts | 255° |
| 2026-05-04 16:07 | 19.85378 | 75.42232 | 37484 ft | 451 kts | 255° |
| 2026-05-04 16:07 | 19.82692 | 75.32681 | 36703 ft | 448 kts | 255° |
| 2026-05-04 16:08 | 19.81811 | 75.29552 | 36493 ft | 447 kts | 255° |
| 2026-05-04 16:08 | 19.79137 | 75.20070 | 35577 ft | 450 kts | 255° |
| 2026-05-04 16:09 | 19.77324 | 75.13651 | 34764 ft | 456 kts | 255° |
| 2026-05-04 16:09 | 19.75494 | 75.07184 | 34082 ft | 457 kts | 255° |
| 2026-05-04 16:10 | 19.73661 | 75.00719 | 33172 ft | 462 kts | 255° |
| 2026-05-04 16:11 | 19.70805 | 74.90651 | 30826 ft | 485 kts | 255° |
| 2026-05-04 16:11 | 19.69825 | 74.87208 | 30202 ft | 488 kts | 255° |
| 2026-05-04 16:12 | 19.66916 | 74.77003 | 29093 ft | 475 kts | 255° |
| 2026-05-04 16:12 | 19.64069 | 74.67030 | 27927 ft | 467 kts | 255° |
| 2026-05-04 16:13 | 19.62206 | 74.60510 | 27191 ft | 462 kts | 254° |
| 2026-05-04 16:13 | 19.60349 | 74.54020 | 26477 ft | 457 kts | 255° |
| 2026-05-04 16:14 | 19.58582 | 74.47580 | 25794 ft | 452 kts | 255° |
| 2026-05-04 16:14 | 19.56863 | 74.41199 | 24647 ft | 447 kts | 255° |
| 2026-05-04 16:15 | 19.54307 | 74.31785 | 22623 ft | 439 kts | 255° |
| 2026-05-04 16:16 | 19.52623 | 74.25619 | 21331 ft | 431 kts | 255° |
| 2026-05-04 16:16 | 19.50151 | 74.16584 | 19514 ft | 421 kts | 255° |
| 2026-05-04 16:17 | 19.48549 | 74.10740 | 18319 ft | 417 kts | 255° |
| 2026-05-04 16:18 | 19.46155 | 74.02016 | 16788 ft | 399 kts | 255° |
| 2026-05-04 16:18 | 19.45391 | 73.99238 | 16609 ft | 386 kts | 255° |
| 2026-05-04 16:19 | 19.43240 | 73.91418 | 16144 ft | 351 kts | 255° |
| 2026-05-04 16:19 | 19.41867 | 73.86612 | 15800 ft | 333 kts | 250° |
| 2026-05-04 16:20 | 19.38632 | 73.80203 | 14858 ft | 325 kts | 242° |
| 2026-05-04 16:20 | 19.36415 | 73.76068 | 14240 ft | 320 kts | 242° |
| 2026-05-04 16:21 | 19.33216 | 73.69939 | 13262 ft | 314 kts | 242° |
| 2026-05-04 16:22 | 19.31134 | 73.65913 | 12631 ft | 310 kts | 242° |
| 2026-05-04 16:22 | 19.28070 | 73.59979 | 11724 ft | 306 kts | 242° |
| 2026-05-04 16:23 | 19.25045 | 73.54122 | 10832 ft | 299 kts | 242° |
| 2026-05-04 16:24 | 19.21157 | 73.46504 | 9716 ft | 283 kts | 251° |
| 2026-05-04 16:25 | 19.20072 | 73.42546 | 8910 ft | 283 kts | 248° |
| 2026-05-04 16:26 | 19.17040 | 73.34928 | 7684 ft | 275 kts | 249° |
| 2026-05-04 16:26 | 19.14954 | 73.29331 | 6827 ft | 270 kts | 250° |
| 2026-05-04 16:27 | 19.13600 | 73.25639 | 6268 ft | 267 kts | 250° |
| 2026-05-04 16:28 | 19.11614 | 73.20206 | 5416 ft | 261 kts | 249° |
| 2026-05-04 16:28 | 19.09696 | 73.14963 | 4603 ft | 236 kts | 250° |
| 2026-05-04 16:29 | 19.09149 | 73.09235 | 3766 ft | 177 kts | 269° |
| 2026-05-04 16:30 | 19.09148 | 73.05361 | 3155 ft | 172 kts | 267° |
| 2026-05-04 16:31 | 19.09114 | 73.02923 | 2746 ft | 160 kts | 266° |
| 2026-05-04 16:31 | 19.09060 | 72.99337 | 2109 ft | 163 kts | 266° |
| 2026-05-04 16:32 | 19.09014 | 72.96230 | 1556 ft | 152 kts | 266° |
| 2026-05-04 16:33 | 19.08981 | 72.94078 | 1189 ft | 145 kts | 267° |
| 2026-05-04 16:33 | 19.08951 | 72.91960 | 852 ft | 148 kts | 265° |
| 2026-05-04 16:34 | 19.08922 | 72.89855 | 517 ft | 141 kts | 268° |
| 2026-05-04 16:34 | 19.08906 | 72.88813 | 288 ft | 140 kts | 265° |
| 2026-05-04 16:35 | 19.08862 | 72.86167 | 52 ft | 67 kts | 269° |
| 2026-05-04 16:35 | 19.08948 | 72.85496 | 50 ft | 0 kts | 295° |
| 2026-05-04 16:36 | 19.09029 | 72.85573 | 54 ft | 17 kts | 91° |
| 2026-05-04 16:37 | 19.09029 | 72.85789 | 54 ft | 14 kts | 90° |
| 2026-05-04 16:37 | 19.09032 | 72.85885 | 54 ft | 13 kts | 88° |
| 2026-05-04 16:37 | 19.09033 | 72.86068 | 53 ft | 12 kts | 90° |
| 2026-05-04 16:38 | 19.09038 | 72.86280 | 52 ft | 17 kts | 81° |
| 2026-05-04 16:39 | 19.09260 | 72.86576 | 48 ft | 15 kts | 49° |
| 2026-05-04 16:39 | 19.09392 | 72.86734 | 48 ft | 8 kts | 49° |
| 2026-05-04 16:40 | 19.09473 | 72.86833 | 47 ft | 10 kts | 49° |
| 2026-05-04 16:40 | 19.09555 | 72.86986 | 48 ft | 12 kts | 118° |
| 2026-05-04 16:41 | 19.09475 | 72.87069 | 47 ft | 1 kts | 139° |
| 2026-05-04 16:41 | 19.09473 | 72.87071 | 47 ft | 0 kts | 139° |